Time;durP1;ratioP1;P1;durP2;ratioP2;P2;SDS_P1;SDS_P2;PMS_P1;PMS_P2;Temp;Humidity;BMP_temperature;BMP_pressure;BME280_temperature;BME280_humidity;BME280_pressure;Samples;Min_cycle;Max_cycle;Signal;HPM_P1;HPM_P2
2023/09/26 00:00:33;;;;;;;23.20;6.53;;;;;;;;;;5178968;27;20175;-71
2023/09/26 00:03:19;;;;;;;18.20;6.40;;;;;;;;;;5164022;27;20411;-72
2023/09/26 00:06:17;;;;;;;22.13;6.32;;;;;;;;;;5178179;27;20350;-73
2023/09/26 00:09:05;;;;;;;19.27;6.35;;;;;;;;;;5178494;27;20435;-71
2023/09/26 00:11:51;;;;;;;21.38;6.43;;;;;;;;;;5178914;27;20033;-73
2023/09/26 00:14:37;;;;;;;18.60;6.15;;;;;;;;;;5178906;27;20018;-72
2023/09/26 00:17:22;;;;;;;24.30;6.20;;;;;;;;;;5178777;27;20030;-72
2023/09/26 00:20:15;;;;;;;15.85;6.22;;;;;;;;;;5178302;27;20458;-72
2023/09/26 00:23:01;;;;;;;22.45;6.88;;;;;;;;;;5178739;27;20036;-73
2023/09/26 00:25:47;;;;;;;25.48;6.20;;;;;;;;;;5178502;27;20051;-73
2023/09/26 00:28:32;;;;;;;14.18;5.80;;;;;;;;;;5178567;27;20041;-72
2023/09/26 00:31:18;;;;;;;22.17;6.35;;;;;;;;;;5178443;27;20454;-73
2023/09/26 00:34:04;;;;;;;26.38;6.75;;;;;;;;;;5177927;27;20055;-74
2023/09/26 00:36:50;;;;;;;26.17;6.82;;;;;;;;;;5177998;27;20037;-73
2023/09/26 00:39:37;;;;;;;14.82;6.07;;;;;;;;;;5178021;27;20061;-71
2023/09/26 00:42:23;;;;;;;17.70;6.05;;;;;;;;;;5162858;27;20424;-73
2023/09/26 00:45:09;;;;;;;24.25;6.45;;;;;;;;;;5162966;27;20049;-73
2023/09/26 00:47:55;;;;;;;15.73;5.85;;;;;;;;;;5176822;27;20050;-74
2023/09/26 00:50:41;;;;;;;21.88;6.50;;;;;;;;;;5177505;27;20095;-74
2023/09/26 00:53:27;;;;;;;22.23;6.47;;;;;;;;;;5176925;27;20393;-72
2023/09/26 00:56:12;;;;;;;22.73;5.82;;;;;;;;;;5178327;27;20041;-73
2023/09/26 00:58:58;;;;;;;18.52;5.65;;;;;;;;;;5177637;27;20022;-73
2023/09/26 01:01:45;;;;;;;21.08;5.65;;;;;;;;;;5177005;27;20022;-73
2023/09/26 01:04:31;;;;;;;18.05;6.22;;;;;;;;;;5178211;27;20341;-72
2023/09/26 01:07:16;;;;;;;20.02;5.43;;;;;;;;;;5178031;27;20432;-73
2023/09/26 01:10:10;;;;;;;20.60;6.22;;;;;;;;;;5177494;27;20022;-72
2023/09/26 01:12:56;;;;;;;16.88;5.53;;;;;;;;;;5176290;27;20101;-72
2023/09/26 01:15:43;;;;;;;21.58;5.88;;;;;;;;;;5176958;27;20423;-72
2023/09/26 01:18:30;;;;;;;16.73;5.40;;;;;;;;;;5177615;27;20036;-72
2023/09/26 01:21:16;;;;;;;20.98;5.63;;;;;;;;;;5176900;27;20440;-72
2023/09/26 01:24:02;;;;;;;24.45;5.80;;;;;;;;;;5177786;27;20026;-71
2023/09/26 01:26:47;;;;;;;19.98;6.20;;;;;;;;;;5176622;27;20022;-72
2023/09/26 01:29:33;;;;;;;25.50;5.72;;;;;;;;;;5165186;27;20018;-71
2023/09/26 01:32:18;;;;;;;21.08;6.38;;;;;;;;;;5186985;27;20070;-71
2023/09/26 01:35:04;;;;;;;22.23;6.13;;;;;;;;;;5184604;27;20029;-72
2023/09/26 01:37:50;;;;;;;18.83;6.18;;;;;;;;;;5183288;27;20014;-72
2023/09/26 01:40:36;;;;;;;15.50;5.50;;;;;;;;;;5177197;27;20010;-72
2023/09/26 01:43:21;;;;;;;15.05;5.43;;;;;;;;;;5177104;27;20014;-73
2023/09/26 01:46:07;;;;;;;11.88;5.10;;;;;;;;;;5176322;27;20019;-72
2023/09/26 01:48:53;;;;;;;19.25;6.05;;;;;;;;;;5176769;27;20385;-72
2023/09/26 01:51:38;;;;;;;21.55;5.93;;;;;;;;;;5177436;27;20487;-73
2023/09/26 01:54:24;;;;;;;12.73;5.60;;;;;;;;;;5178583;27;20029;-72
2023/09/26 01:57:09;;;;;;;20.10;6.03;;;;;;;;;;5181059;27;20114;-71
2023/09/26 01:59:55;;;;;;;15.50;5.68;;;;;;;;;;5176328;27;20018;-73
2023/09/26 02:02:42;;;;;;;19.20;6.05;;;;;;;;;;5176376;27;20507;-72
2023/09/26 02:05:27;;;;;;;20.10;5.80;;;;;;;;;;5176523;27;20512;-71
2023/09/26 02:08:15;;;;;;;25.38;5.70;;;;;;;;;;5176325;27;20022;-73
2023/09/26 02:11:00;;;;;;;18.45;5.68;;;;;;;;;;5176079;27;20019;-73
2023/09/26 02:13:46;;;;;;;17.52;5.47;;;;;;;;;;5176850;27;20046;-73
2023/09/26 02:16:31;;;;;;;19.38;5.35;;;;;;;;;;5176211;27;20026;-74
2023/09/26 02:19:17;;;;;;;14.55;5.32;;;;;;;;;;5175858;27;20018;-71
2023/09/26 02:22:04;;;;;;;20.90;6.30;;;;;;;;;;5176729;27;20090;-72
2023/09/26 02:24:52;;;;;;;19.38;6.20;;;;;;;;;;5176807;27;20351;-73
2023/09/26 02:27:41;;;;;;;14.32;5.93;;;;;;;;;;5175463;27;20019;-73
2023/09/26 02:30:30;;;;;;;19.85;6.05;;;;;;;;;;5175865;27;20050;-72
2023/09/26 02:33:16;;;;;;;16.63;6.18;;;;;;;;;;5175706;27;20011;-72
2023/09/26 02:36:02;;;;;;;20.30;5.93;;;;;;;;;;5176521;27;20033;-72
2023/09/26 02:38:47;;;;;;;20.85;6.20;;;;;;;;;;5176707;27;20448;-73
2023/09/26 02:41:33;;;;;;;17.40;5.93;;;;;;;;;;5175869;27;20466;-73
2023/09/26 02:44:18;;;;;;;15.50;5.78;;;;;;;;;;5161059;27;20030;-73
2023/09/26 02:47:04;;;;;;;21.60;5.82;;;;;;;;;;5175280;27;20015;-74
2023/09/26 02:49:49;;;;;;;15.93;5.25;;;;;;;;;;5175493;27;20035;-73
2023/09/26 02:52:36;;;;;;;20.15;5.63;;;;;;;;;;5175828;27;20438;-74
2023/09/26 02:55:22;;;;;;;16.40;5.72;;;;;;;;;;5175802;27;20029;-71
2023/09/26 02:58:07;;;;;;;17.10;5.60;;;;;;;;;;5160861;27;20014;-72
2023/09/26 03:00:53;;;;;;;16.50;5.95;;;;;;;;;;5176160;27;20018;-73
2023/09/26 03:03:38;;;;;;;18.83;5.88;;;;;;;;;;5176422;27;20026;-72
2023/09/26 03:06:24;;;;;;;18.85;5.72;;;;;;;;;;5174592;27;20089;-72
2023/09/26 03:09:09;;;;;;;22.02;6.20;;;;;;;;;;5160828;27;20018;-71
2023/09/26 03:11:55;;;;;;;16.02;5.60;;;;;;;;;;5175447;27;20423;-71
2023/09/26 03:14:41;;;;;;;24.33;5.82;;;;;;;;;;5161213;27;20083;-72
2023/09/26 03:17:26;;;;;;;16.75;5.60;;;;;;;;;;5176353;27;20109;-73
2023/09/26 03:20:15;;;;;;;17.02;5.97;;;;;;;;;;5175175;27;20030;-72
2023/09/26 03:23:00;;;;;;;18.48;5.63;;;;;;;;;;5176202;27;20057;-72
2023/09/26 03:25:46;;;;;;;14.05;5.57;;;;;;;;;;5174268;27;20018;-72
2023/09/26 03:28:31;;;;;;;18.17;5.93;;;;;;;;;;5161351;27;20065;-72
2023/09/26 03:31:17;;;;;;;20.52;6.57;;;;;;;;;;5179592;27;20079;-73
2023/09/26 03:34:03;;;;;;;23.73;5.55;;;;;;;;;;5179974;27;20014;-71
2023/09/26 03:36:48;;;;;;;15.43;6.55;;;;;;;;;;5179594;27;20018;-73
2023/09/26 03:39:34;;;;;;;13.50;6.05;;;;;;;;;;5164465;27;20351;-72
2023/09/26 03:42:19;;;;;;;18.52;7.07;;;;;;;;;;5179593;27;20339;-72
2023/09/26 03:45:06;;;;;;;18.90;7.57;;;;;;;;;;5179890;27;20029;-71
2023/09/26 03:47:52;;;;;;;26.75;7.75;;;;;;;;;;5179849;27;20027;-73
2023/09/26 03:50:39;;;;;;;24.67;7.35;;;;;;;;;;5178667;27;20125;-73
2023/09/26 03:53:24;;;;;;;26.88;7.35;;;;;;;;;;5179589;27;20105;-71
2023/09/26 03:56:10;;;;;;;25.35;7.53;;;;;;;;;;5179708;27;20022;-74
2023/09/26 03:58:56;;;;;;;21.92;6.93;;;;;;;;;;5180425;27;20060;-73
2023/09/26 04:01:42;;;;;;;20.95;6.88;;;;;;;;;;5179152;27;20092;-73
2023/09/26 04:04:29;;;;;;;18.80;6.80;;;;;;;;;;5179238;27;20448;-72
2023/09/26 04:07:14;;;;;;;21.45;6.80;;;;;;;;;;5179206;27;20381;-73
2023/09/26 04:10:00;;;;;;;20.92;6.85;;;;;;;;;;5178366;27;20018;-70
2023/09/26 04:12:47;;;;;;;16.33;6.47;;;;;;;;;;5178919;27;20104;-71
2023/09/26 04:15:32;;;;;;;20.70;7.30;;;;;;;;;;5178167;27;20345;-70
2023/09/26 04:18:18;;;;;;;17.88;6.72;;;;;;;;;;5165580;27;20029;-71
2023/09/26 04:21:06;;;;;;;26.40;7.40;;;;;;;;;;5178244;27;20094;-71
2023/09/26 04:23:51;;;;;;;19.67;7.43;;;;;;;;;;5164948;27;20053;-72
2023/09/26 04:26:37;;;;;;;20.13;7.80;;;;;;;;;;5179388;27;20033;-73
2023/09/26 04:29:23;;;;;;;28.10;7.85;;;;;;;;;;5163956;27;20198;-72
2023/09/26 04:32:10;;;;;;;16.52;7.20;;;;;;;;;;5179220;27;20055;-72
2023/09/26 04:34:56;;;;;;;18.08;7.03;;;;;;;;;;5162517;27;20423;-74
2023/09/26 04:37:41;;;;;;;21.05;7.72;;;;;;;;;;5177801;27;20022;-72
2023/09/26 04:40:27;;;;;;;15.07;7.57;;;;;;;;;;5162736;27;20007;-73
2023/09/26 04:43:12;;;;;;;24.58;7.47;;;;;;;;;;5179322;27;20090;-72
2023/09/26 04:45:58;;;;;;;24.13;8.18;;;;;;;;;;5178307;27;20101;-72
2023/09/26 04:48:44;;;;;;;25.05;7.38;;;;;;;;;;5177383;27;20022;-73
2023/09/26 04:51:30;;;;;;;21.58;6.88;;;;;;;;;;5177628;27;20026;-73
2023/09/26 04:54:15;;;;;;;27.35;8.50;;;;;;;;;;5162686;27;20109;-74
2023/09/26 04:57:01;;;;;;;23.83;7.22;;;;;;;;;;5178833;27;20061;-73
2023/09/26 04:59:47;;;;;;;19.98;8.25;;;;;;;;;;5176667;27;20462;-74
2023/09/26 05:02:32;;;;;;;18.30;7.30;;;;;;;;;;5162192;27;20030;-72
2023/09/26 05:05:19;;;;;;;25.48;7.18;;;;;;;;;;5176832;27;20014;-73
2023/09/26 05:08:05;;;;;;;15.23;7.05;;;;;;;;;;5177277;27;20022;-72
2023/09/26 05:10:50;;;;;;;18.60;6.60;;;;;;;;;;5162044;27;20045;-73
2023/09/26 05:13:36;;;;;;;19.83;7.03;;;;;;;;;;5178200;27;20040;-73
2023/09/26 05:16:21;;;;;;;20.92;7.68;;;;;;;;;;5177257;27;20094;-72
2023/09/26 05:19:07;;;;;;;16.90;6.93;;;;;;;;;;5162635;27;20411;-73
2023/09/26 05:21:53;;;;;;;16.58;6.32;;;;;;;;;;5162398;27;20352;-71
2023/09/26 05:24:38;;;;;;;15.55;6.07;;;;;;;;;;5178100;27;20026;-72
2023/09/26 05:27:24;;;;;;;30.20;6.85;;;;;;;;;;5161175;27;20444;-72
2023/09/26 05:30:11;;;;;;;10.85;6.20;;;;;;;;;;5176857;27;20026;-72
2023/09/26 05:32:56;;;;;;;18.17;6.53;;;;;;;;;;5162075;27;20019;-74
2023/09/26 05:35:42;;;;;;;16.08;6.65;;;;;;;;;;5176879;27;20022;-72
2023/09/26 05:38:28;;;;;;;21.17;6.63;;;;;;;;;;5177330;27;20018;-73
2023/09/26 05:41:14;;;;;;;23.10;6.53;;;;;;;;;;5177353;27;20117;-73
2023/09/26 05:43:59;;;;;;;20.20;6.63;;;;;;;;;;5177851;27;20123;-74
2023/09/26 05:46:45;;;;;;;17.92;6.70;;;;;;;;;;5176661;27;20028;-73
2023/09/26 05:49:30;;;;;;;17.58;7.07;;;;;;;;;;5176652;27;20050;-73
2023/09/26 05:52:16;;;;;;;14.65;6.70;;;;;;;;;;5176020;27;20057;-72
2023/09/26 05:55:03;;;;;;;14.73;6.32;;;;;;;;;;5177243;27;20351;-72
2023/09/26 05:57:49;;;;;;;20.75;7.20;;;;;;;;;;5176626;27;20018;-74
2023/09/26 06:00:36;;;;;;;19.25;6.88;;;;;;;;;;5176981;27;20053;-73
2023/09/26 06:03:22;;;;;;;16.27;6.88;;;;;;;;;;5176897;27;20018;-73
2023/09/26 06:06:07;;;;;;;15.07;6.97;;;;;;;;;;5177597;27;20026;-72
2023/09/26 06:08:53;;;;;;;20.88;7.15;;;;;;;;;;5177700;27;20029;-73
2023/09/26 06:11:39;;;;;;;15.02;5.85;;;;;;;;;;5176796;27;20097;-72
2023/09/26 06:14:25;;;;;;;16.65;6.75;;;;;;;;;;5176003;27;20030;-72
2023/09/26 06:17:11;;;;;;;18.45;6.97;;;;;;;;;;5176929;27;20033;-73
2023/09/26 06:19:56;;;;;;;23.58;7.68;;;;;;;;;;5175988;27;20019;-73
2023/09/26 06:22:42;;;;;;;17.23;6.65;;;;;;;;;;5176598;27;20026;-73
2023/09/26 06:25:27;;;;;;;14.10;7.28;;;;;;;;;;5176307;27;20049;-72
2023/09/26 06:28:13;;;;;;;17.58;6.43;;;;;;;;;;5177223;27;20014;-73
2023/09/26 06:31:05;;;;;;;15.57;6.38;;;;;;;;;;5161015;27;20014;-72
2023/09/26 06:33:51;;;;;;;16.63;6.55;;;;;;;;;;5176778;27;20030;-74
2023/09/26 06:36:37;;;;;;;12.82;6.60;;;;;;;;;;5176275;27;20014;-74
2023/09/26 06:39:22;;;;;;;17.83;6.68;;;;;;;;;;5161895;27;20029;-73
2023/09/26 06:42:08;;;;;;;18.42;6.35;;;;;;;;;;5162041;27;20034;-75
2023/09/26 06:44:54;;;;;;;15.18;6.10;;;;;;;;;;5176251;27;20305;-73
2023/09/26 06:47:39;;;;;;;13.20;5.55;;;;;;;;;;5160361;27;20018;-73
2023/09/26 06:50:25;;;;;;;23.60;6.32;;;;;;;;;;5175423;27;20141;-72
2023/09/26 06:53:11;;;;;;;14.30;6.10;;;;;;;;;;5176656;27;20109;-73
2023/09/26 06:56:00;;;;;;;18.25;6.22;;;;;;;;;;5160759;27;20029;-74
2023/09/26 06:58:46;;;;;;;15.32;6.20;;;;;;;;;;5160617;27;20033;-71
2023/09/26 07:01:31;;;;;;;10.60;6.13;;;;;;;;;;5175418;27;20018;-70
2023/09/26 07:04:17;;;;;;;13.68;6.50;;;;;;;;;;5163956;27;20427;-71
2023/09/26 07:07:03;;;;;;;19.85;6.25;;;;;;;;;;5164777;27;20030;-71
2023/09/26 07:09:49;;;;;;;20.10;6.40;;;;;;;;;;5179454;27;20435;-71
2023/09/26 07:12:34;;;;;;;19.77;5.80;;;;;;;;;;5180542;27;20022;-70
2023/09/26 07:15:20;;;;;;;13.27;5.68;;;;;;;;;;5180849;27;20018;-72
2023/09/26 07:18:09;;;;;;;18.48;6.40;;;;;;;;;;5180801;27;20061;-71
2023/09/26 07:20:55;;;;;;;13.52;6.00;;;;;;;;;;5180351;27;20019;-71
2023/09/26 07:23:40;;;;;;;16.55;6.22;;;;;;;;;;5178946;27;20085;-71
2023/09/26 07:26:26;;;;;;;18.30;5.97;;;;;;;;;;5179902;27;20098;-71
2023/09/26 07:29:12;;;;;;;12.73;5.97;;;;;;;;;;5165236;27;20018;-71
2023/09/26 07:31:57;;;;;;;16.95;6.15;;;;;;;;;;5179256;27;20071;-71
2023/09/26 07:34:43;;;;;;;16.40;6.18;;;;;;;;;;5180251;27;20095;-71
2023/09/26 07:37:29;;;;;;;11.30;6.53;;;;;;;;;;5178615;27;20523;-71
2023/09/26 07:40:15;;;;;;;17.25;6.05;;;;;;;;;;5179762;27;20064;-70
2023/09/26 07:43:00;;;;;;;10.73;5.55;;;;;;;;;;5179825;27;20037;-71
2023/09/26 07:45:46;;;;;;;10.77;5.63;;;;;;;;;;5179226;27;20186;-72
2023/09/26 07:48:32;;;;;;;16.27;6.03;;;;;;;;;;5164725;27;20436;-71
2023/09/26 07:51:17;;;;;;;12.90;5.50;;;;;;;;;;5179287;27;20475;-71
2023/09/26 07:54:04;;;;;;;16.80;5.85;;;;;;;;;;5179823;27;20022;-70
2023/09/26 07:56:49;;;;;;;19.15;5.50;;;;;;;;;;5178712;27;20026;-70
2023/09/26 07:59:37;;;;;;;17.70;6.38;;;;;;;;;;5179154;27;20431;-70
2023/09/26 08:02:23;;;;;;;13.10;6.03;;;;;;;;;;5179780;27;20026;-71
2023/09/26 08:05:08;;;;;;;9.18;5.30;;;;;;;;;;5164127;27;20033;-70
2023/09/26 08:07:54;;;;;;;15.85;8.55;;;;;;;;;;5179316;27;20014;-72
2023/09/26 08:10:40;;;;;;;16.40;5.93;;;;;;;;;;5164668;27;20045;-71
2023/09/26 08:13:26;;;;;;;11.65;5.70;;;;;;;;;;5163113;27;20065;-71
2023/09/26 08:16:11;;;;;;;15.40;5.70;;;;;;;;;;5162960;27;20045;-72
2023/09/26 08:18:57;;;;;;;18.15;5.40;;;;;;;;;;5177988;27;20018;-72
2023/09/26 08:21:43;;;;;;;15.15;5.72;;;;;;;;;;5179164;27;20086;-71
2023/09/26 08:24:29;;;;;;;13.27;5.65;;;;;;;;;;5178732;27;20080;-69
2023/09/26 08:27:16;;;;;;;12.73;5.30;;;;;;;;;;5178188;27;20014;-69
2023/09/26 08:30:02;;;;;;;14.63;5.65;;;;;;;;;;5178606;27;20019;-71
2023/09/26 08:32:47;;;;;;;37.13;5.72;;;;;;;;;;5178943;27;20026;-70
2023/09/26 08:35:33;;;;;;;17.45;5.50;;;;;;;;;;5163885;27;20022;-71
2023/09/26 08:38:19;;;;;;;14.25;5.57;;;;;;;;;;5178264;27;20033;-70
2023/09/26 08:41:05;;;;;;;11.40;5.68;;;;;;;;;;5177731;27;20116;-71
2023/09/26 08:43:51;;;;;;;16.10;6.15;;;;;;;;;;5178386;27;20023;-75
2023/09/26 08:46:37;;;;;;;15.88;5.57;;;;;;;;;;5178915;27;20022;-73
2023/09/26 08:49:23;;;;;;;15.68;5.38;;;;;;;;;;5183391;27;20046;-76
2023/09/26 08:52:09;;;;;;;14.18;6.00;;;;;;;;;;5177590;27;20042;-74
2023/09/26 08:54:55;;;;;;;10.88;5.47;;;;;;;;;;5188463;27;20029;-75
2023/09/26 08:57:41;;;;;;;13.73;5.80;;;;;;;;;;5178272;27;20431;-73
2023/09/26 09:00:27;;;;;;;27.60;5.93;;;;;;;;;;5165858;27;20022;-73
2023/09/26 09:03:13;;;;;;;13.25;5.75;;;;;;;;;;5182882;27;20033;-77
2023/09/26 09:05:58;;;;;;;21.30;5.80;;;;;;;;;;5195795;27;20019;-76
2023/09/26 09:08:44;;;;;;;13.90;5.40;;;;;;;;;;5195537;27;20018;-76
2023/09/26 09:11:32;;;;;;;17.33;6.20;;;;;;;;;;5194630;27;20046;-76
2023/09/26 09:14:30;;;;;;;13.48;5.40;;;;;;;;;;5195507;27;20027;-76
2023/09/26 09:17:15;;;;;;;11.57;5.30;;;;;;;;;;5179325;27;20002;-74
2023/09/26 09:20:01;;;;;;;15.40;5.65;;;;;;;;;;5182326;27;20082;-74
2023/09/26 09:22:46;;;;;;;14.35;5.55;;;;;;;;;;5180894;27;20025;-74
2023/09/26 09:25:33;;;;;;;16.70;5.80;;;;;;;;;;5196711;27;20029;-74
2023/09/26 09:28:22;;;;;;;19.38;5.38;;;;;;;;;;5180785;27;20022;-75
2023/09/26 09:31:08;;;;;;;22.02;6.00;;;;;;;;;;5177898;27;20015;-74
2023/09/26 09:33:56;;;;;;;23.50;5.63;;;;;;;;;;5176243;27;20022;-75
2023/09/26 09:36:43;;;;;;;14.90;5.50;;;;;;;;;;5194665;27;20037;-75
2023/09/26 09:39:29;;;;;;;16.55;5.55;;;;;;;;;;5172693;27;20454;-75
2023/09/26 09:42:15;;;;;;;15.15;5.55;;;;;;;;;;5180242;27;20112;-76
2023/09/26 09:45:04;;;;;;;12.95;4.90;;;;;;;;;;5180090;27;20028;-75
2023/09/26 09:47:49;;;;;;;23.65;5.13;;;;;;;;;;5178795;27;20018;-76
2023/09/26 09:50:38;;;;;;;15.90;5.15;;;;;;;;;;5179719;27;20081;-75
2023/09/26 09:53:27;;;;;;;20.25;5.38;;;;;;;;;;5180968;27;20071;-75
2023/09/26 09:56:18;;;;;;;25.58;5.63;;;;;;;;;;5166191;27;20428;-76
2023/09/26 09:59:07;;;;;;;12.75;5.20;;;;;;;;;;5165020;27;20483;-74
2023/09/26 10:01:54;;;;;;;15.35;5.38;;;;;;;;;;5165820;27;20022;-76
2023/09/26 10:04:41;;;;;;;11.68;5.32;;;;;;;;;;5168404;27;20022;-74
2023/09/26 10:07:27;;;;;;;11.35;5.22;;;;;;;;;;5177411;27;20022;-75
2023/09/26 10:10:16;;;;;;;15.68;5.20;;;;;;;;;;5162505;27;20010;-73
2023/09/26 10:13:03;;;;;;;26.55;6.03;;;;;;;;;;5176882;27;20006;-74
2023/09/26 10:16:11;;;;;;;14.95;5.25;;;;;;;;;;5162404;27;20018;-75
2023/09/26 10:18:59;;;;;;;15.85;7.07;;;;;;;;;;5162529;27;20029;-74
2023/09/26 10:21:45;;;;;;;11.98;4.97;;;;;;;;;;5185312;27;20337;-75
2023/09/26 10:24:30;;;;;;;15.52;5.47;;;;;;;;;;5186551;27;20018;-74
2023/09/26 10:27:31;;;;;;;13.68;5.32;;;;;;;;;;5187909;27;20018;-76
2023/09/26 10:30:18;;;;;;;10.75;5.00;;;;;;;;;;5174371;27;20030;-75
2023/09/26 10:33:04;;;;;;;13.10;5.25;;;;;;;;;;5174202;27;20017;-75
2023/09/26 10:35:50;;;;;;;18.42;5.60;;;;;;;;;;5188196;27;20082;-75
2023/09/26 10:38:39;;;;;;;11.65;4.90;;;;;;;;;;5185722;27;20015;-76
2023/09/26 10:41:26;;;;;;;21.50;5.05;;;;;;;;;;5174311;27;20085;-75
2023/09/26 10:44:12;;;;;;;20.25;4.65;;;;;;;;;;5171914;27;20073;-74
2023/09/26 10:46:57;;;;;;;26.98;5.38;;;;;;;;;;5168927;27;20033;-75
2023/09/26 10:49:45;;;;;;;23.73;5.50;;;;;;;;;;5187832;27;20046;-75
2023/09/26 10:52:32;;;;;;;22.70;4.57;;;;;;;;;;5190965;27;20019;-75
2023/09/26 10:55:19;;;;;;;20.73;5.90;;;;;;;;;;5190389;27;20352;-75
2023/09/26 10:58:04;;;;;;;18.02;4.75;;;;;;;;;;5192613;27;20018;-77
2023/09/26 11:00:51;;;;;;;16.33;4.55;;;;;;;;;;5189764;27;20102;-76
2023/09/26 11:03:37;;;;;;;19.42;4.72;;;;;;;;;;5191517;27;20053;-75
2023/09/26 11:06:23;;;;;;;10.73;4.63;;;;;;;;;;5183348;27;20106;-76
2023/09/26 11:09:11;;;;;;;13.13;5.15;;;;;;;;;;5173341;27;20014;-73
2023/09/26 11:11:57;;;;;;;17.48;4.82;;;;;;;;;;5173729;27;20019;-75
2023/09/26 11:14:43;;;;;;;9.80;4.82;;;;;;;;;;5172663;27;20014;-76
2023/09/26 11:17:29;;;;;;;12.38;4.30;;;;;;;;;;5173443;27;20022;-75
2023/09/26 11:20:15;;;;;;;17.25;4.85;;;;;;;;;;5170353;27;20027;-74
2023/09/26 11:23:00;;;;;;;15.57;4.88;;;;;;;;;;5186306;27;20057;-75
2023/09/26 11:25:56;;;;;;;15.15;4.97;;;;;;;;;;5167556;27;20022;-73
2023/09/26 11:28:42;;;;;;;22.50;5.05;;;;;;;;;;5166182;27;20086;-75
2023/09/26 11:31:29;;;;;;;21.20;5.00;;;;;;;;;;5180307;27;20018;-75
2023/09/26 11:34:17;;;;;;;17.60;5.18;;;;;;;;;;5181945;27;20420;-74
2023/09/26 11:37:08;;;;;;;11.88;4.93;;;;;;;;;;5181266;27;20026;-75
2023/09/26 11:39:57;;;;;;;18.27;5.03;;;;;;;;;;5179700;27;20037;-74
2023/09/26 11:42:47;;;;;;;31.77;5.30;;;;;;;;;;5177485;27;20022;-76
2023/09/26 11:45:39;;;;;;;20.00;5.03;;;;;;;;;;5177619;27;20094;-74
2023/09/26 11:48:24;;;;;;;16.33;5.78;;;;;;;;;;5162510;27;20070;-74
2023/09/26 11:51:10;;;;;;;16.02;4.30;;;;;;;;;;5178778;27;20497;-76
2023/09/26 11:53:56;;;;;;;20.33;4.78;;;;;;;;;;5181904;27;20488;-74
2023/09/26 11:56:41;;;;;;;14.85;4.90;;;;;;;;;;5165173;27;20041;-74
2023/09/26 11:59:27;;;;;;;12.23;4.22;;;;;;;;;;5180716;27;20026;-74
2023/09/26 12:02:13;;;;;;;13.98;4.45;;;;;;;;;;5165971;27;20101;-75
2023/09/26 12:04:58;;;;;;;14.75;4.75;;;;;;;;;;5180868;27;20363;-74
2023/09/26 12:07:44;;;;;;;9.77;4.10;;;;;;;;;;5167043;27;20026;-76
2023/09/26 12:10:30;;;;;;;16.23;5.05;;;;;;;;;;5165544;27;20022;-73
2023/09/26 12:13:15;;;;;;;15.90;4.40;;;;;;;;;;5159520;27;20023;-74
2023/09/26 12:16:01;;;;;;;21.92;4.68;;;;;;;;;;5164657;27;20030;-74
2023/09/26 12:18:47;;;;;;;31.75;4.85;;;;;;;;;;5177493;27;20515;-75
2023/09/26 12:21:32;;;;;;;48.10;5.70;;;;;;;;;;5164395;27;20026;-74
2023/09/26 12:24:18;;;;;;;17.80;3.63;;;;;;;;;;5177785;27;20033;-75
2023/09/26 12:27:04;;;;;;;19.33;4.63;;;;;;;;;;5178223;27;20045;-73
2023/09/26 12:29:50;;;;;;;18.50;4.45;;;;;;;;;;5178206;27;20424;-75
2023/09/26 12:32:36;;;;;;;15.13;3.67;;;;;;;;;;5178856;27;20022;-72
2023/09/26 12:35:22;;;;;;;16.88;3.95;;;;;;;;;;5163441;27;20101;-73
2023/09/26 12:38:07;;;;;;;19.05;3.63;;;;;;;;;;5178664;27;20037;-73
2023/09/26 12:40:53;;;;;;;16.70;3.70;;;;;;;;;;5177896;27;20045;-73
2023/09/26 12:43:40;;;;;;;18.15;3.65;;;;;;;;;;5163996;27;20006;-75
2023/09/26 12:46:26;;;;;;;14.13;3.40;;;;;;;;;;5178542;27;20022;-75
2023/09/26 12:49:12;;;;;;;19.80;3.60;;;;;;;;;;5177933;27;20054;-74
2023/09/26 12:51:57;;;;;;;17.27;3.47;;;;;;;;;;5179192;27;20070;-76
2023/09/26 12:54:44;;;;;;;14.10;3.40;;;;;;;;;;5182617;27;20022;-74
2023/09/26 12:57:30;;;;;;;25.23;3.83;;;;;;;;;;5190740;27;20021;-74
2023/09/26 13:00:16;;;;;;;21.08;3.45;;;;;;;;;;5165259;27;20018;-76
2023/09/26 13:03:02;;;;;;;15.68;3.90;;;;;;;;;;5177904;27;20089;-77
2023/09/26 13:05:48;;;;;;;19.52;3.55;;;;;;;;;;5162958;27;20448;-76
2023/09/26 13:08:33;;;;;;;17.75;3.90;;;;;;;;;;5178138;27;20026;-77
2023/09/26 13:11:19;;;;;;;19.20;3.88;;;;;;;;;;5179395;27;20074;-75
2023/09/26 13:14:05;;;;;;;22.92;4.25;;;;;;;;;;5178542;27;20400;-75
2023/09/26 13:16:51;;;;;;;12.63;3.30;;;;;;;;;;5163252;27;20174;-76
2023/09/26 13:19:38;;;;;;;20.73;3.50;;;;;;;;;;5177512;27;20037;-76
2023/09/26 13:22:24;;;;;;;15.88;3.50;;;;;;;;;;5177770;27;20018;-76
2023/09/26 13:25:09;;;;;;;20.95;3.50;;;;;;;;;;5180129;27;20018;-76
2023/09/26 13:27:55;;;;;;;21.02;3.58;;;;;;;;;;5177155;27;20439;-77
2023/09/26 13:30:41;;;;;;;19.52;3.83;;;;;;;;;;5163885;27;20094;-78
2023/09/26 13:33:26;;;;;;;23.48;3.88;;;;;;;;;;5180438;27;20022;-79
2023/09/26 13:36:12;;;;;;;21.48;3.75;;;;;;;;;;5182500;27;20026;-74
2023/09/26 13:38:58;;;;;;;22.02;4.03;;;;;;;;;;5178097;27;20018;-74
2023/09/26 13:41:44;;;;;;;21.15;3.50;;;;;;;;;;5177826;27;20018;-76
2023/09/26 13:44:29;;;;;;;19.55;3.75;;;;;;;;;;5161479;27;20101;-77
2023/09/26 13:47:15;;;;;;;14.65;3.13;;;;;;;;;;5177505;27;20025;-74
2023/09/26 13:50:03;;;;;;;22.10;3.75;;;;;;;;;;5176942;27;20097;-77
2023/09/26 13:52:49;;;;;;;23.95;4.07;;;;;;;;;;5177977;27;20061;-77
2023/09/26 13:55:34;;;;;;;18.00;3.80;;;;;;;;;;5177442;27;20014;-76
2023/09/26 13:58:20;;;;;;;14.55;3.63;;;;;;;;;;5177448;27;20033;-75
2023/09/26 14:01:06;;;;;;;8.95;3.28;;;;;;;;;;5178926;27;20018;-77
2023/09/26 14:03:51;;;;;;;14.48;3.83;;;;;;;;;;5162084;27;20018;-78
2023/09/26 14:06:37;;;;;;;20.98;3.88;;;;;;;;;;5159518;27;20015;-78
2023/09/26 14:09:23;;;;;;;11.25;3.50;;;;;;;;;;5178044;27;20466;-78
2023/09/26 14:12:08;;;;;;;13.35;3.90;;;;;;;;;;5177674;27;20066;-76
2023/09/26 14:14:54;;;;;;;14.40;3.42;;;;;;;;;;5177030;27;20042;-76
2023/09/26 14:17:40;;;;;;;10.02;3.42;;;;;;;;;;5181368;27;20018;-75
2023/09/26 14:20:25;;;;;;;17.30;3.80;;;;;;;;;;5187981;27;20074;-80
2023/09/26 14:23:11;;;;;;;13.20;3.72;;;;;;;;;;5178714;27;20061;-79
2023/09/26 14:25:58;;;;;;;14.75;3.72;;;;;;;;;;5187071;27;20037;-80
2023/09/26 14:28:43;;;;;;;14.85;4.28;;;;;;;;;;5171643;27;20435;-80
2023/09/26 14:31:29;;;;;;;13.70;3.53;;;;;;;;;;5178189;27;20019;-80
2023/09/26 14:34:15;;;;;;;12.02;3.63;;;;;;;;;;5166697;27;20026;-78
2023/09/26 14:37:00;;;;;;;15.00;3.60;;;;;;;;;;5177993;27;20432;-78
2023/09/26 14:39:46;;;;;;;11.25;4.20;;;;;;;;;;5178840;27;20359;-76
2023/09/26 14:42:31;;;;;;;20.40;4.28;;;;;;;;;;5162199;27;20054;-71
2023/09/26 14:45:17;;;;;;;11.90;3.42;;;;;;;;;;5177689;27;20029;-75
2023/09/26 14:48:04;;;;;;;18.05;3.67;;;;;;;;;;5162558;27;20019;-76
2023/09/26 14:50:49;;;;;;;12.60;4.05;;;;;;;;;;5176866;27;20065;-75
2023/09/26 14:53:35;;;;;;;11.00;4.28;;;;;;;;;;5176352;27;20010;-74
2023/09/26 14:56:21;;;;;;;19.23;6.68;;;;;;;;;;5177333;27;20329;-75
2023/09/26 14:59:06;;;;;;;23.92;7.55;;;;;;;;;;5163137;27;20028;-76
2023/09/26 15:01:52;;;;;;;23.77;9.15;;;;;;;;;;5177738;27;20029;-77
2023/09/26 15:04:40;;;;;;;20.60;8.68;;;;;;;;;;5177158;27;20014;-74
2023/09/26 15:07:25;;;;;;;18.58;7.10;;;;;;;;;;5177209;27;20037;-77
2023/09/26 15:10:11;;;;;;;16.63;6.60;;;;;;;;;;5178731;27;20097;-75
2023/09/26 15:12:56;;;;;;;20.73;5.97;;;;;;;;;;5161730;27;20101;-75
2023/09/26 15:15:42;;;;;;;14.32;5.18;;;;;;;;;;5161605;27;20014;-77
2023/09/26 15:18:28;;;;;;;21.52;5.63;;;;;;;;;;5175942;27;20018;-75
2023/09/26 15:21:14;;;;;;;15.15;4.50;;;;;;;;;;5161168;27;20015;-76
2023/09/26 15:23:59;;;;;;;14.70;4.72;;;;;;;;;;5175982;27;20475;-75
2023/09/26 15:26:45;;;;;;;10.35;3.80;;;;;;;;;;5180146;27;20058;-74
2023/09/26 15:29:31;;;;;;;12.80;3.55;;;;;;;;;;5180693;27;20026;-75
2023/09/26 15:32:16;;;;;;;11.25;3.83;;;;;;;;;;5166918;27;20075;-74
2023/09/26 15:35:02;;;;;;;13.10;3.58;;;;;;;;;;5181754;27;20086;-75
2023/09/26 15:37:47;;;;;;;13.35;3.35;;;;;;;;;;5179803;27;20046;-76
2023/09/26 15:40:33;;;;;;;11.27;3.22;;;;;;;;;;5180120;27;20036;-74
2023/09/26 15:43:19;;;;;;;9.55;3.30;;;;;;;;;;5179555;27;20406;-76
2023/09/26 15:46:04;;;;;;;15.27;3.42;;;;;;;;;;5181046;27;20030;-76
2023/09/26 15:48:50;;;;;;;14.88;3.13;;;;;;;;;;5179849;27;20022;-76
2023/09/26 15:51:36;;;;;;;8.10;3.20;;;;;;;;;;5164905;27;20029;-76
2023/09/26 15:54:22;;;;;;;13.85;3.15;;;;;;;;;;5165762;27;20061;-76
2023/09/26 15:57:08;;;;;;;15.88;3.22;;;;;;;;;;5179483;27;20019;-75
2023/09/26 15:59:54;;;;;;;10.48;2.92;;;;;;;;;;5180239;27;20071;-76
2023/09/26 16:02:40;;;;;;;14.73;3.58;;;;;;;;;;5165325;27;20037;-75
2023/09/26 16:05:25;;;;;;;13.95;3.20;;;;;;;;;;5164994;27;20022;-74
2023/09/26 16:08:11;;;;;;;8.77;3.58;;;;;;;;;;5164994;27;20026;-75
2023/09/26 16:10:57;;;;;;;15.02;3.40;;;;;;;;;;5179721;27;20018;-75
2023/09/26 16:13:43;;;;;;;11.80;3.95;;;;;;;;;;5165565;27;20018;-76
2023/09/26 16:16:28;;;;;;;11.15;3.20;;;;;;;;;;5180853;27;20018;-75
2023/09/26 16:19:14;;;;;;;3.63;2.92;;;;;;;;;;5179333;27;20018;-76
2023/09/26 16:22:00;;;;;;;8.77;3.33;;;;;;;;;;5179742;27;20105;-76